Ana Sayfa
METAR-TAF:

METAR-TAF

Havaalanları :

Cocos Adaları, Avustralya

Enlem: 12-11S, Boylam: 096-49E, yükseklik: 3 m

Güncel hava durumu gözlemi

Rapor saat 00:00 UTC de 15 dakika önce yapıldı.
Rüzgar güneydoğudan 12 kt
Sıcaklık 26°C
Nem 79%
Basınç 1013 hPa
Görüş mesafesi 10 km veya daha fazla
2300 ft yükseklikte parçalı bulutlu

METAR: YPCC 130000Z AUTO 14012KT 9999 // SCT023 26/22 Q1013 RF00.0/000.0

Saat: 06:45 (00:15 UTC)

Tahmin

Rapor saat 23:20 UTC de 55 dakika önce yapıldı.
Ayın 13'si saat 00 UTC'den ayın 14'si saat 00 UTC'ye kadar geçerli Tahmin
Rüzgar güneydoğudan 12 kt
Görüş mesafesi 10 km veya daha fazla
2500 ft yükseklikte parçalı bulutlu

TAF: YPCC 122320Z 1300/1400 13012KT 9999 SCT025

4.000'den fazla havaalanı için hava durumu gözlemleri ve tahminleri (METAR ve TAF raporları).

Kullanılabilir istasyonlar harita üzerinde sarı ve kırmızı noktalarla gösterilir.

İstasyonun adını görmek için fareyi noktanın üzerinde gezdirin.

Sonrasında hava gözlem ve tahminlerini görmek için tıklayın.

Haritayı değiştirmek için: yaklaştırmak için siyah artı işaretli yeşil düğmeye ve uzaklaştırmak için de eksi işaretli düğmeye hızla tıklayın; bitişik haritalar için yeşil okları kullanın.


METAR-TAF: